Time;durP1;ratioP1;P1;durP2;ratioP2;P2;SDS_P1;SDS_P2;PMS_P1;PMS_P2;Temp;Humidity;BMP_temperature;BMP_pressure;BME280_temperature;BME280_humidity;BME280_pressure;Samples;Min_cycle;Max_cycle;Signal;HPM_P1;HPM_P2
2021/03/14 00:01:05;;;;;;;10.75;5.15;;;;;;;1.84;76.44;97236.24;1667563;86;21212;-65
2021/03/14 00:03:36;;;;;;;6.65;4.20;;;;;;;1.88;76.22;97232.55;1667410;85;21624;-63
2021/03/14 00:06:06;;;;;;;5.40;3.85;;;;;;;1.91;76.32;97228.95;1667479;86;21648;-66
2021/03/14 00:08:34;;;;;;;11.00;5.03;;;;;;;1.90;75.90;97226.05;1667813;86;21200;-66
2021/03/14 00:11:06;;;;;;;7.70;4.80;;;;;;;1.94;76.51;97230.03;1667568;86;21235;-65
2021/03/14 00:13:38;;;;;;;5.58;4.20;;;;;;;1.91;76.07;97234.89;1667536;86;21176;-65
2021/03/14 00:16:09;;;;;;;10.68;4.90;;;;;;;1.89;76.37;97231.63;1667629;85;21183;-65
2021/03/14 00:18:41;;;;;;;12.07;6.22;;;;;;;1.85;76.02;97230.20;1667631;86;21230;-65
2021/03/14 00:21:11;;;;;;;8.55;4.47;;;;;;;1.81;75.93;97223.66;1667589;86;21148;-65
2021/03/14 00:23:39;;;;;;;11.43;7.22;;;;;;;1.81;76.06;97231.34;1667499;85;21167;-66
2021/03/14 00:26:07;;;;;;;6.78;5.45;;;;;;;1.76;76.43;97223.62;1667635;85;21183;-65
2021/03/14 00:28:36;;;;;;;10.80;6.10;;;;;;;1.68;76.64;97227.16;1667570;85;21655;-65
2021/03/14 00:31:04;;;;;;;6.42;4.03;;;;;;;1.67;76.31;97216.59;1667480;86;21148;-65
2021/03/14 00:33:32;;;;;;;5.50;3.85;;;;;;;1.63;75.92;97220.28;1667449;86;21172;-65
2021/03/14 00:36:00;;;;;;;7.03;3.58;;;;;;;1.61;75.72;97214.44;1667581;85;21159;-65
2021/03/14 00:38:28;;;;;;;6.12;4.45;;;;;;;1.58;75.44;97219.31;1667588;85;21179;-65
2021/03/14 00:40:56;;;;;;;5.58;4.08;;;;;;;1.56;75.68;97212.65;1667624;85;21620;-65
2021/03/14 00:43:24;;;;;;;7.17;3.37;;;;;;;1.49;75.93;97212.72;1667391;85;21223;-63
2021/03/14 00:45:52;;;;;;;6.55;4.15;;;;;;;1.44;75.84;97207.91;1667775;86;21144;-63
2021/03/14 00:48:22;;;;;;;6.15;3.37;;;;;;;1.40;76.83;97206.52;1667409;85;21210;-64
2021/03/14 00:50:50;;;;;;;6.17;3.80;;;;;;;1.27;77.54;97199.30;1662274;86;21212;-63
2021/03/14 00:53:19;;;;;;;6.37;3.98;;;;;;;1.22;77.43;97194.50;1660211;86;21171;-63
2021/03/14 00:55:49;;;;;;;9.25;4.12;;;;;;;1.18;78.52;97186.67;1660325;86;21163;-63
2021/03/14 00:58:18;;;;;;;6.78;4.50;;;;;;;1.16;77.91;97184.70;1660218;85;21183;-63
2021/03/14 01:00:46;;;;;;;8.25;4.95;;;;;;;1.16;78.51;97185.16;1660118;86;21278;-63
2021/03/14 01:03:14;;;;;;;3.83;2.95;;;;;;;1.14;78.69;97180.59;1660250;86;21176;-63
2021/03/14 01:06:03;;;;;;;6.87;4.80;;;;;;;1.12;78.63;97180.71;1660105;86;21279;-63
2021/03/14 01:08:31;;;;;;;5.55;3.55;;;;;;;1.14;78.67;97183.97;1671006;85;21626;-63
2021/03/14 01:11:00;;;;;;;8.60;3.98;;;;;;;1.18;79.24;97176.91;1638330;86;21180;-63
2021/03/14 01:13:46;;;;;;;8.50;4.62;;;;;;;1.18;78.83;97171.33;1656895;85;21208;-64
2021/03/14 01:16:16;;;;;;;4.65;3.58;;;;;;;1.19;78.18;97160.19;1638398;86;21663;-65
2021/03/14 01:18:46;;;;;;;6.05;4.85;;;;;;;1.23;77.62;97159.06;1655711;86;21137;-63
2021/03/14 01:21:14;;;;;;;6.60;5.50;;;;;;;1.24;77.84;97153.48;1656938;85;21235;-64
2021/03/14 01:23:42;;;;;;;8.95;4.80;;;;;;;1.22;77.76;97148.46;1656780;86;21152;-63
2021/03/14 01:26:10;;;;;;;9.40;4.83;;;;;;;1.20;77.66;97142.66;1656903;85;21238;-63
2021/03/14 01:28:38;;;;;;;6.60;3.62;;;;;;;1.19;77.34;97142.28;1656879;86;21669;-64
2021/03/14 01:31:07;;;;;;;8.28;4.62;;;;;;;1.20;77.56;97140.55;1638339;86;21355;-63
2021/03/14 01:33:35;;;;;;;4.15;3.52;;;;;;;1.15;77.83;97137.02;1656828;86;21238;-63
2021/03/14 01:38:45;;;;;;;5.90;3.37;;;;;;;1.14;79.17;97132.00;1696788;84;21565;-64
2021/03/14 01:41:13;;;;;;;9.63;5.85;;;;;;;1.16;79.44;97133.55;1696792;83;21596;-64
2021/03/14 01:43:43;;;;;;;6.60;4.78;;;;;;;1.18;79.26;97125.30;1681807;84;21588;-63
2021/03/14 01:46:11;;;;;;;6.15;3.67;;;;;;;1.19;78.96;97116.71;1696748;84;21164;-64
2021/03/14 01:48:40;;;;;;;13.90;4.50;;;;;;;1.21;78.40;97116.13;1696857;84;21612;-63
2021/03/14 01:51:21;;;;;;;9.23;3.85;;;;;;;1.23;78.35;97110.92;1688166;84;21188;-63
2021/03/14 01:54:11;;;;;;;9.65;5.40;;;;;;;1.23;77.94;97112.20;1750209;81;21129;-63
2021/03/14 01:56:39;;;;;;;15.88;4.58;;;;;;;1.18;78.83;97111.69;1674451;84;21243;-63
2021/03/14 01:59:08;;;;;;;6.22;4.03;;;;;;;1.21;78.49;97100.79;1674506;84;21322;-64
2021/03/14 02:01:36;;;;;;;6.92;5.50;;;;;;;1.20;78.67;97095.34;1639620;86;21180;-64
2021/03/14 02:04:06;;;;;;;6.17;5.05;;;;;;;1.21;78.42;97094.85;1639553;86;21625;-65
2021/03/14 02:06:35;;;;;;;7.50;4.83;;;;;;;1.21;78.60;97106.36;1639406;86;21192;-65
2021/03/14 02:09:05;;;;;;;4.15;3.60;;;;;;;1.22;78.06;97104.98;1640340;86;21286;-63
2021/03/14 02:11:36;;;;;;;10.53;4.47;;;;;;;1.21;78.04;97110.20;1640153;86;21153;-62
2021/03/14 02:14:08;;;;;;;5.87;2.62;;;;;;;1.22;77.55;97106.27;1639973;86;21197;-62
2021/03/14 02:16:41;;;;;;;8.05;4.65;;;;;;;1.21;77.63;97100.79;1640153;86;21924;-63
2021/03/14 02:19:18;;;;;;;8.75;4.50;;;;;;;1.20;77.62;97086.39;1640141;86;21188;-62
2021/03/14 02:21:47;;;;;;;4.80;3.87;;;;;;;1.22;77.49;97085.80;1639848;86;21225;-63
2021/03/14 02:24:26;;;;;;;8.60;5.22;;;;;;;1.21;77.21;97087.18;1640102;86;21197;-62
2021/03/14 02:27:06;;;;;;;7.72;3.70;;;;;;;1.21;76.98;97084.16;1640062;86;21248;-63
2021/03/14 02:29:36;;;;;;;10.80;5.58;;;;;;;1.24;76.71;97086.99;1640248;86;21188;-62
2021/03/14 02:32:09;;;;;;;7.50;5.12;;;;;;;1.25;76.76;97084.77;1640160;86;21185;-64
2021/03/14 02:34:44;;;;;;;8.18;4.87;;;;;;;1.25;77.03;97077.09;1649236;85;21192;-62
2021/03/14 02:37:15;;;;;;;8.30;4.65;;;;;;;1.23;77.37;97077.68;1640229;86;21182;-62
2021/03/14 02:39:44;;;;;;;3.95;3.55;;;;;;;1.24;76.97;97076.30;1640154;86;21296;-62
2021/03/14 02:42:13;;;;;;;6.30;4.37;;;;;;;1.27;77.37;97071.42;1622593;87;21173;-63
2021/03/14 02:44:48;;;;;;;10.48;6.40;;;;;;;1.16;78.88;97073.46;1639356;86;21194;-62
2021/03/14 02:47:39;;;;;;;8.00;5.03;;;;;;;1.18;78.87;97075.89;1638991;86;21167;-63
2021/03/14 02:50:34;;;;;;;5.45;3.02;;;;;;;1.22;78.20;97076.03;1665969;86;21241;-63
2021/03/14 02:53:02;;;;;;;12.45;4.33;;;;;;;1.23;78.38;97081.05;1676539;85;21164;-62
2021/03/14 02:55:31;;;;;;;5.80;3.47;;;;;;;1.26;78.08;97097.45;1694348;85;21521;-62
2021/03/14 02:57:59;;;;;;;6.55;3.75;;;;;;;1.31;77.54;97088.19;1653472;85;21187;-63
2021/03/14 03:00:31;;;;;;;6.25;3.37;;;;;;;1.39;77.41;97084.64;1694177;85;21670;-62
2021/03/14 03:03:02;;;;;;;8.55;4.33;;;;;;;1.44;77.10;97071.05;1676406;85;21175;-63
2021/03/14 03:05:31;;;;;;;9.05;4.22;;;;;;;1.53;76.85;97069.13;1694467;85;21135;-63
2021/03/14 03:08:01;;;;;;;8.28;4.25;;;;;;;1.61;76.60;97062.17;1664914;86;21129;-64
2021/03/14 03:10:34;;;;;;;7.20;4.28;;;;;;;1.72;76.40;97055.83;1694199;85;21594;-63
2021/03/14 03:13:04;;;;;;;10.75;5.05;;;;;;;1.73;76.35;97059.56;1676637;84;21168;-63
2021/03/14 03:15:32;;;;;;;9.33;4.15;;;;;;;1.62;76.88;97071.50;1694257;85;21166;-62
2021/03/14 03:18:02;;;;;;;10.32;4.35;;;;;;;1.65;76.60;97059.75;1676487;85;21251;-64
2021/03/14 03:20:33;;;;;;;17.10;4.65;;;;;;;1.66;76.24;97053.72;1694252;85;21170;-64
2021/03/14 03:23:03;;;;;;;3.95;3.35;;;;;;;1.68;76.43;97059.53;1676429;85;21664;-64
2021/03/14 03:25:32;;;;;;;12.05;5.40;;;;;;;1.68;76.30;97060.81;1694233;84;21556;-63
2021/03/14 03:28:00;;;;;;;6.78;4.10;;;;;;;1.68;76.77;97063.37;1676551;85;21218;-64
2021/03/14 03:30:29;;;;;;;8.75;4.72;;;;;;;1.71;76.40;97070.85;1694135;85;21166;-63
2021/03/14 03:32:57;;;;;;;8.43;5.35;;;;;;;1.71;76.90;97068.30;1664850;86;21181;-63
2021/03/14 03:35:29;;;;;;;6.35;3.60;;;;;;;1.66;77.40;97051.16;1694407;85;21177;-62
2021/03/14 03:37:57;;;;;;;9.58;4.30;;;;;;;1.72;76.72;97051.98;1676739;85;21192;-62
2021/03/14 03:40:29;;;;;;;8.05;4.78;;;;;;;1.74;76.77;97057.37;1694210;85;21186;-62
2021/03/14 03:43:08;;;;;;;6.60;4.12;;;;;;;1.74;76.51;97051.43;1664880;86;21157;-62
2021/03/14 03:45:40;;;;;;;6.20;4.15;;;;;;;1.76;76.22;97059.34;1694173;83;21133;-64
2021/03/14 03:48:15;;;;;;;8.75;5.05;;;;;;;1.79;76.06;97058.32;1676723;85;21673;-64
2021/03/14 03:50:52;;;;;;;6.97;4.75;;;;;;;1.79;76.05;97042.47;1693988;83;21151;-64
2021/03/14 03:53:22;;;;;;;8.75;6.05;;;;;;;1.75;76.10;97054.34;1731440;83;21584;-64
2021/03/14 03:55:53;;;;;;;9.70;4.03;;;;;;;1.72;75.90;97049.42;1731446;83;21215;-64
2021/03/14 03:58:23;;;;;;;7.15;4.33;;;;;;;1.71;75.76;97050.38;1731584;83;21167;-62
2021/03/14 04:00:53;;;;;;;11.20;4.55;;;;;;;1.72;75.70;97048.14;1694197;85;21207;-63
2021/03/14 04:03:23;;;;;;;7.05;3.70;;;;;;;1.70;76.02;97037.22;1731339;83;21195;-63
2021/03/14 04:05:58;;;;;;;8.15;4.65;;;;;;;1.63;76.08;97033.02;1694163;85;21211;-63
2021/03/14 04:08:27;;;;;;;5.65;3.60;;;;;;;1.59;77.01;97039.73;1731562;83;21535;-63
2021/03/14 04:11:08;;;;;;;5.30;3.95;;;;;;;1.54;77.65;97033.66;1731380;83;21183;-63
2021/03/14 04:13:37;;;;;;;7.92;4.78;;;;;;;1.54;77.32;97036.68;1694124;85;21184;-62
2021/03/14 04:16:07;;;;;;;6.35;3.47;;;;;;;1.51;77.32;97047.14;1731379;83;21171;-62
2021/03/14 04:18:37;;;;;;;6.72;4.50;;;;;;;1.47;77.53;97055.95;1694074;84;21220;-63
2021/03/14 04:21:11;;;;;;;6.70;4.28;;;;;;;1.37;78.88;97045.55;1693720;84;21162;-62
2021/03/14 04:23:42;;;;;;;14.13;4.00;;;;;;;1.42;77.49;97053.72;1731342;83;21143;-63
2021/03/14 04:26:12;;;;;;;7.87;5.45;;;;;;;1.48;76.91;97035.85;1731612;83;21187;-63
2021/03/14 04:28:42;;;;;;;7.97;4.28;;;;;;;1.48;77.59;97035.85;1731561;83;21201;-62
2021/03/14 04:31:12;;;;;;;8.90;5.25;;;;;;;1.50;77.48;97057.02;1694000;85;21140;-65
2021/03/14 04:33:43;;;;;;;7.58;4.87;;;;;;;1.49;77.33;97050.25;1694188;85;21178;-62
2021/03/14 04:36:14;;;;;;;7.15;4.67;;;;;;;1.54;77.16;97043.08;1731501;83;21207;-64
2021/03/14 04:38:44;;;;;;;6.65;4.42;;;;;;;1.55;77.62;97046.81;1693950;83;21194;-65
2021/03/14 04:41:12;;;;;;;6.12;4.25;;;;;;;1.58;77.63;97041.94;1705115;83;21195;-64
2021/03/14 04:43:44;;;;;;;7.92;4.03;;;;;;;1.54;77.82;97037.50;1668339;85;21170;-66
2021/03/14 04:46:14;;;;;;;8.45;3.72;;;;;;;1.58;77.68;97035.53;1731555;83;21587;-65
2021/03/14 04:48:43;;;;;;;4.83;3.37;;;;;;;1.56;78.28;97030.52;1694166;84;21228;-65
2021/03/14 04:51:14;;;;;;;4.92;3.90;;;;;;;1.62;77.58;97037.77;1727786;82;21203;-63
2021/03/14 04:53:42;;;;;;;7.70;4.10;;;;;;;1.63;77.89;97029.63;1694140;85;21203;-64
2021/03/14 04:56:13;;;;;;;3.60;3.15;;;;;;;1.61;77.58;97040.42;1731576;83;21163;-63
2021/03/14 04:58:42;;;;;;;7.08;4.17;;;;;;;1.69;77.16;97038.14;1693944;84;21231;-62
2021/03/14 05:01:13;;;;;;;4.35;3.67;;;;;;;1.76;76.82;97041.88;1731367;83;21610;-64
2021/03/14 05:03:45;;;;;;;15.75;4.55;;;;;;;1.80;76.33;97036.44;1694087;84;21160;-67
2021/03/14 05:06:21;;;;;;;9.28;3.83;;;;;;;1.79;76.04;97025.05;1731408;83;21227;-65
2021/03/14 05:08:50;;;;;;;13.55;5.17;;;;;;;1.78;75.75;97009.33;1694218;85;21180;-63
2021/03/14 05:11:20;;;;;;;6.20;3.95;;;;;;;1.72;75.63;97018.71;1731281;83;21187;-65
2021/03/14 05:13:50;;;;;;;10.18;4.55;;;;;;;1.71;75.63;97001.75;1693950;85;21215;-64
2021/03/14 05:16:19;;;;;;;8.03;3.92;;;;;;;1.73;75.63;97004.53;1731371;83;21184;-64
2021/03/14 05:18:48;;;;;;;11.00;5.20;;;;;;;1.77;75.62;97004.67;1731559;83;21223;-66
2021/03/14 05:21:17;;;;;;;4.75;3.85;;;;;;;1.76;75.68;97006.05;1731825;83;21584;-64
2021/03/14 05:23:47;;;;;;;7.22;5.08;;;;;;;1.70;75.55;97001.39;1731440;83;21155;-65
2021/03/14 05:26:14;;;;;;;6.17;4.85;;;;;;;1.71;75.53;96999.19;1694146;85;21136;-64
2021/03/14 05:28:45;;;;;;;9.78;4.28;;;;;;;1.74;75.42;97014.31;1731856;83;21168;-64
2021/03/14 05:31:46;;;;;;;7.20;4.42;;;;;;;1.77;75.33;97007.69;1694139;85;21632;-64
2021/03/14 05:34:17;;;;;;;10.93;5.72;;;;;;;1.80;75.41;97007.45;1655422;86;21595;-62
2021/03/14 05:36:45;;;;;;;10.55;5.58;;;;;;;1.82;75.91;97002.59;1655298;86;21557;-63
2021/03/14 05:39:15;;;;;;;12.58;5.78;;;;;;;1.79;76.89;97008.41;1621042;88;21145;-64
2021/03/14 05:41:44;;;;;;;8.05;5.28;;;;;;;1.77;77.00;97002.11;1621148;88;21600;-64
2021/03/14 05:44:13;;;;;;;7.58;4.15;;;;;;;1.76;77.18;97003.48;1621087;87;21606;-64
2021/03/14 05:46:41;;;;;;;10.72;5.12;;;;;;;1.79;76.70;97004.08;1621169;88;21219;-64
2021/03/14 05:49:10;;;;;;;11.48;6.37;;;;;;;1.87;76.39;96996.66;1621173;88;21190;-64
2021/03/14 05:51:49;;;;;;;9.65;6.00;;;;;;;1.94;76.93;96992.38;1621084;88;21180;-64
2021/03/14 05:54:18;;;;;;;10.13;4.90;;;;;;;2.00;76.32;96992.73;1621091;88;21612;-63
2021/03/14 05:56:49;;;;;;;8.90;4.62;;;;;;;2.09;76.10;96981.81;1621225;88;21140;-65
2021/03/14 05:59:18;;;;;;;6.85;4.58;;;;;;;2.12;76.56;96978.20;1621004;87;21182;-65
2021/03/14 06:01:52;;;;;;;8.10;4.60;;;;;;;2.07;76.90;96978.54;1621072;88;21183;-66
2021/03/14 06:04:21;;;;;;;7.08;4.40;;;;;;;1.99;77.53;96975.73;1621203;88;21196;-66
2021/03/14 06:06:49;;;;;;;11.60;5.60;;;;;;;2.09;77.57;96965.63;1621032;88;21878;-66
2021/03/14 06:09:17;;;;;;;8.65;3.98;;;;;;;2.16;77.61;96958.66;1621005;87;21152;-66
2021/03/14 06:11:46;;;;;;;11.55;4.75;;;;;;;2.23;77.50;96951.31;1655272;85;21621;-66
2021/03/14 06:14:14;;;;;;;6.55;4.58;;;;;;;2.31;77.35;96957.95;1621265;88;21156;-65
2021/03/14 06:16:42;;;;;;;11.65;5.15;;;;;;;2.41;76.63;96968.34;1621154;88;21617;-65
2021/03/14 06:19:11;;;;;;;6.83;4.83;;;;;;;2.50;76.33;96977.41;1621078;88;21256;-66
2021/03/14 06:21:39;;;;;;;9.10;4.97;;;;;;;2.16;75.87;96909.17;1621406;88;21306;-66
2021/03/14 06:24:10;;;;;;;9.68;5.25;;;;;;;2.68;75.79;96969.61;1621473;87;21148;-64
2021/03/14 06:26:45;;;;;;;13.25;5.62;;;;;;;2.76;75.61;96962.11;1655208;87;21153;-64
2021/03/14 06:29:25;;;;;;;11.10;5.92;;;;;;;2.85;75.37;96965.72;1621121;88;21616;-64
2021/03/14 06:32:00;;;;;;;13.08;6.65;;;;;;;2.96;75.27;96968.25;1621030;88;21597;-64
2021/03/14 06:34:36;;;;;;;10.25;5.97;;;;;;;3.03;75.55;96963.48;1621215;87;21679;-64
2021/03/14 06:37:16;;;;;;;10.07;6.13;;;;;;;3.06;75.82;96964.52;1621538;88;21660;-67
2021/03/14 06:39:51;;;;;;;11.05;5.65;;;;;;;3.09;75.83;96976.63;1621002;88;21171;-65
2021/03/14 06:45:14;;;;;;;6.37;5.22;;;;;;;3.31;75.62;96980.41;1621177;87;20174;-66
2021/03/14 06:47:50;;;;;;;8.70;5.30;;;;;;;3.41;75.35;96979.22;1655254;87;21220;-66
2021/03/14 06:50:32;;;;;;;9.40;4.83;;;;;;;3.50;75.18;96975.11;1621165;88;21275;-65
2021/03/14 06:53:08;;;;;;;8.28;4.22;;;;;;;3.61;74.92;96970.74;1621093;88;21164;-64
2021/03/14 06:55:38;;;;;;;8.30;4.83;;;;;;;3.72;74.87;96978.39;1621139;88;21168;-67
2021/03/14 06:58:34;;;;;;;11.70;4.85;;;;;;;3.79;74.66;96977.41;1602228;88;21176;-63
2021/03/14 07:01:18;;;;;;;6.17;4.72;;;;;;;3.86;74.64;96980.28;1621136;88;21160;-66
2021/03/14 07:03:52;;;;;;;8.95;4.75;;;;;;;4.01;74.68;96977.77;1621157;87;21171;-66
2021/03/14 07:06:26;;;;;;;8.78;5.20;;;;;;;4.26;74.65;96975.61;1621040;88;21252;-66
2021/03/14 07:09:09;;;;;;;6.40;3.65;;;;;;;4.59;73.51;96969.38;1621046;87;21582;-64
2021/03/14 07:11:45;;;;;;;10.13;4.33;;;;;;;4.87;72.58;96963.98;1624704;88;21181;-69
2021/03/14 07:14:18;;;;;;;11.33;5.20;;;;;;;5.20;72.50;96956.41;1664657;84;21256;-64
2021/03/14 07:16:58;;;;;;;14.63;5.00;;;;;;;5.46;71.21;96952.83;1682961;84;21144;-64
2021/03/14 07:19:32;;;;;;;8.05;4.15;;;;;;;5.71;70.89;96941.98;1682762;84;21618;-62
2021/03/14 07:22:11;;;;;;;5.00;3.83;;;;;;;5.82;68.29;96938.44;1682841;85;21431;-65
2021/03/14 07:24:42;;;;;;;7.45;4.08;;;;;;;5.93;68.08;96941.70;1682739;84;21168;-65
2021/03/14 07:27:14;;;;;;;13.10;4.85;;;;;;;6.04;67.52;96946.70;1682688;85;21609;-64
2021/03/14 07:29:42;;;;;;;7.30;3.60;;;;;;;6.10;67.44;96948.73;1682644;85;21636;-64
2021/03/14 07:32:10;;;;;;;4.70;3.37;;;;;;;6.09;67.45;96949.67;1683013;85;21165;-66
2021/03/14 07:34:38;;;;;;;3.98;3.20;;;;;;;6.34;67.03;96948.73;1682543;84;21185;-61
2021/03/14 07:37:06;;;;;;;7.85;4.40;;;;;;;6.62;66.96;96947.30;1682897;84;21232;-63
2021/03/14 07:39:35;;;;;;;5.97;3.42;;;;;;;6.89;65.40;96938.75;1676056;85;21181;-63
2021/03/14 07:42:04;;;;;;;7.90;4.60;;;;;;;7.16;67.24;96946.46;1657819;85;21589;-63
2021/03/14 07:44:33;;;;;;;6.35;4.28;;;;;;;7.10;64.40;96948.83;1653694;86;21220;-63
2021/03/14 07:47:04;;;;;;;7.28;3.90;;;;;;;7.24;64.88;96948.31;1654172;86;21732;-63
2021/03/14 07:49:36;;;;;;;10.85;4.28;;;;;;;7.29;64.35;96949.16;1654050;86;21213;-64
2021/03/14 07:52:09;;;;;;;6.28;3.98;;;;;;;7.30;64.69;96938.70;1653920;86;21600;-62
2021/03/14 07:54:45;;;;;;;14.05;4.55;;;;;;;7.37;64.27;96941.02;1646050;87;21177;-62
2021/03/14 07:57:34;;;;;;;8.25;4.00;;;;;;;7.26;64.33;96945.12;1653238;85;21700;-65
2021/03/14 08:00:24;;;;;;;10.82;5.37;;;;;;;7.31;64.59;96949.84;1659988;85;21648;-63
2021/03/14 08:02:55;;;;;;;27.93;13.95;;;;;;;7.25;64.04;96962.03;1669215;85;21601;-63
2021/03/14 08:05:45;;;;;;;38.45;16.77;;;;;;;7.06;64.33;96925.07;1677690;85;21584;-63
2021/03/14 08:08:27;;;;;;;18.32;9.05;;;;;;;7.27;64.21;96957.08;1677509;84;21581;-64
2021/03/14 08:10:56;;;;;;;13.50;7.10;;;;;;;7.24;64.84;96952.18;1677204;85;21182;-65
2021/03/14 08:13:35;;;;;;;9.20;5.42;;;;;;;7.25;64.75;96938.80;1677662;85;21199;-65
2021/03/14 08:16:26;;;;;;;9.15;5.25;;;;;;;7.33;65.40;96938.41;1677575;84;21180;-65
2021/03/14 08:18:55;;;;;;;8.65;4.92;;;;;;;7.29;65.58;96938.84;1666162;86;21602;-65
2021/03/14 08:21:35;;;;;;;8.00;4.70;;;;;;;7.36;65.38;96937.28;1666278;84;21221;-65
2021/03/14 08:24:27;;;;;;;5.90;3.98;;;;;;;7.41;64.85;96946.23;1665255;84;21202;-68
2021/03/14 08:30:47;;;;;;;8.58;4.00;;;;;;;7.43;64.82;96955.13;1639564;87;21592;-65
2021/03/14 08:36:55;;;;;;;10.35;3.30;;;;;;;7.49;65.89;96954.05;1608318;89;21124;-63
2021/03/14 08:43:03;;;;;;;5.30;2.80;;;;;;;7.66;67.49;96942.09;1608282;89;21159;-65
2021/03/14 08:49:02;;;;;;;7.37;3.50;;;;;;;8.24;65.35;96931.18;1608324;89;21143;-65
2021/03/14 08:55:10;;;;;;;4.15;3.10;;;;;;;8.90;63.75;96910.62;1608322;89;21122;-65
2021/03/14 09:01:16;;;;;;;5.53;2.70;;;;;;;9.91;61.85;96911.53;1608336;89;21124;-66
2021/03/14 09:06:44;;;;;;;;;;;;;;;11.00;57.16;96909.09;1669600;85;21495;-65
2021/03/14 09:09:17;;;;;;;5.67;3.42;;;;;;;11.15;55.51;96898.30;1699502;84;20189;-66
2021/03/14 09:12:01;;;;;;;8.85;3.45;;;;;;;11.38;55.66;96895.70;1710671;83;21639;-65
2021/03/14 09:14:40;;;;;;;5.08;3.00;;;;;;;11.50;53.51;96888.30;1698090;84;21163;-65
2021/03/14 09:17:14;;;;;;;8.75;3.22;;;;;;;11.85;55.11;96891.13;1678537;85;21095;-65
2021/03/14 09:19:55;;;;;;;8.10;3.58;;;;;;;11.69;52.78;96888.63;1683628;85;21176;-65
2021/03/14 09:22:29;;;;;;;5.83;3.55;;;;;;;11.50;53.06;96876.60;1691458;83;21601;-65
2021/03/14 09:25:09;;;;;;;4.03;2.58;;;;;;;11.39;55.01;96876.53;1689553;83;21523;-64
2021/03/14 09:27:41;;;;;;;9.68;3.87;;;;;;;11.44;53.66;96875.50;1657311;84;21193;-64
2021/03/14 09:30:18;;;;;;;7.20;3.77;;;;;;;11.31;53.63;96880.48;1695818;83;21152;-64
2021/03/14 09:33:13;;;;;;;8.25;2.98;;;;;;;11.35;53.88;96881.27;1692602;84;21185;-64
2021/03/14 09:35:42;;;;;;;6.15;3.25;;;;;;;11.55;54.05;96886.00;1617340;87;21641;-64
2021/03/14 09:38:22;;;;;;;6.40;3.50;;;;;;;11.46;54.25;96898.73;1610937;89;21204;-66
2021/03/14 09:41:04;;;;;;;6.08;3.17;;;;;;;11.34;54.42;96880.95;1813689;79;23024;-65
2021/03/14 09:43:33;;;;;;;5.35;3.50;;;;;;;11.01;55.05;96882.12;1775821;78;21128;-68
2021/03/14 09:46:09;;;;;;;5.55;3.58;;;;;;;10.90;55.70;96889.00;1789334;78;21131;-64
2021/03/14 09:49:12;;;;;;;4.22;2.77;;;;;;;10.75;56.46;96883.73;1819356;79;23526;-65
2021/03/14 09:51:41;;;;;;;5.42;3.08;;;;;;;10.67;56.73;96887.66;1780742;80;21715;-65
2021/03/14 09:54:12;;;;;;;2.70;1.95;;;;;;;10.65;57.01;96890.12;1776776;80;21680;-64
2021/03/14 09:56:41;;;;;;;8.95;3.00;;;;;;;10.55;57.48;96899.87;1728014;81;21175;-65
2021/03/14 09:59:28;;;;;;;5.07;3.07;;;;;;;10.27;59.54;96899.50;1707555;83;21167;-66
2021/03/14 10:02:05;;;;;;;4.45;2.80;;;;;;;10.18;60.79;96901.78;1735204;82;21654;-65
2021/03/14 10:05:05;;;;;;;6.65;4.03;;;;;;;10.01;62.78;96900.97;1700533;83;21621;-66
2021/03/14 10:07:33;;;;;;;5.97;3.40;;;;;;;9.85;64.18;96900.98;1754741;81;21569;-69
2021/03/14 10:10:26;;;;;;;4.45;2.45;;;;;;;9.71;64.89;96908.14;1772602;81;21341;-65
2021/03/14 10:12:59;;;;;;;3.40;2.45;;;;;;;9.65;64.75;96905.69;1758715;80;21515;-66
2021/03/14 10:15:28;;;;;;;5.03;3.45;;;;;;;9.53;65.31;96917.38;1756704;80;21206;-66
2021/03/14 10:17:59;;;;;;;6.25;2.80;;;;;;;9.47;65.67;96914.94;1772450;80;21371;-66
2021/03/14 10:20:28;;;;;;;4.70;2.65;;;;;;;9.39;67.26;96916.70;1771667;80;21634;-64
2021/03/14 10:23:07;;;;;;;5.92;3.02;;;;;;;9.47;65.88;96920.60;1771607;80;21158;-65
2021/03/14 10:25:51;;;;;;;6.53;2.85;;;;;;;9.64;64.84;96920.13;1804514;77;22686;-63
2021/03/14 10:28:33;;;;;;;5.35;2.83;;;;;;;9.63;66.24;96914.13;1759878;78;21108;-65
2021/03/14 10:31:06;;;;;;;4.33;2.83;;;;;;;9.64;67.27;96913.17;1727071;82;21153;-64
2021/03/14 10:36:33;;;;;;;5.20;2.77;;;;;;;9.68;68.49;96908.47;1711962;84;21604;-64
2021/03/14 10:39:05;;;;;;;5.03;2.87;;;;;;;9.71;68.20;96908.95;1742902;82;21134;-66
2021/03/14 10:41:46;;;;;;;6.80;3.00;;;;;;;9.78;70.38;96909.91;1779074;79;23133;-65
2021/03/14 10:44:22;;;;;;;7.28;3.20;;;;;;;9.77;69.81;96904.88;1690574;85;21151;-64
2021/03/14 10:46:58;;;;;;;5.87;3.15;;;;;;;9.80;68.44;96895.02;1683324;84;21179;-64
2021/03/14 10:49:33;;;;;;;5.40;3.20;;;;;;;9.54;70.41;96889.17;1691951;84;21163;-64
2021/03/14 10:52:07;;;;;;;5.22;2.83;;;;;;;9.54;71.57;96895.17;1703271;84;21108;-64
2021/03/14 10:54:38;;;;;;;32.23;12.28;;;;;;;9.69;70.64;96886.77;1657344;85;21206;-64
2021/03/14 10:57:16;;;;;;;12.98;7.12;;;;;;;9.81;71.93;96884.95;1763816;79;23118;-64
2021/03/14 10:59:47;;;;;;;6.92;3.75;;;;;;;9.71;71.05;96889.98;1708032;82;21184;-64
2021/03/14 11:02:35;;;;;;;6.62;4.28;;;;;;;9.51;70.91;96890.32;1729568;82;21150;-63
2021/03/14 11:04:57;;;;;;;4.12;3.25;;;;;;;9.59;70.35;96892.58;1706797;82;21549;-64
2021/03/14 11:08:01;;;;;;;9.33;4.35;;;;;;;9.68;70.12;96887.73;1739808;82;21160;-63
2021/03/14 11:10:35;;;;;;;6.47;3.83;;;;;;;9.96;69.56;96891.59;1726316;82;21141;-65
2021/03/14 11:13:46;;;;;;;8.83;4.33;;;;;;;10.33;68.77;96889.26;1836169;77;22702;-64
2021/03/14 11:16:25;;;;;;;10.20;5.08;;;;;;;10.31;68.54;96882.63;1658420;84;21163;-64
2021/03/14 11:19:04;;;;;;;10.78;5.65;;;;;;;10.32;69.81;96877.25;1658983;85;21162;-63
2021/03/14 11:21:43;;;;;;;8.68;4.22;;;;;;;10.64;68.07;96880.22;1823531;77;22761;-64
2021/03/14 11:24:16;;;;;;;7.37;3.65;;;;;;;10.75;67.38;96889.41;1827589;78;21569;-64
2021/03/14 11:26:47;;;;;;;5.58;3.87;;;;;;;10.87;66.85;96884.16;1817127;78;21330;-63
2021/03/14 11:29:15;;;;;;;7.08;4.00;;;;;;;10.95;66.06;96878.92;1794450;79;21193;-64
2021/03/14 11:31:52;;;;;;;6.37;3.47;;;;;;;10.90;65.70;96873.42;1793070;79;21590;-64
2021/03/14 11:34:21;;;;;;;7.40;4.10;;;;;;;10.79;67.64;96876.41;1794802;79;21503;-64
2021/03/14 11:37:08;;;;;;;;;;;;;;;10.78;66.87;96871.70;1797689;79;21272;-64
2021/03/14 11:39:38;;;;;;;5.95;2.87;;;;;;;10.83;66.19;96868.59;1787011;79;20138;-64
2021/03/14 11:42:11;;;;;;;5.25;3.37;;;;;;;10.85;65.94;96870.06;1794640;79;21628;-63
2021/03/14 11:44:58;;;;;;;7.25;4.22;;;;;;;10.89;66.29;96864.03;1795233;79;21126;-64
2021/03/14 11:47:27;;;;;;;5.85;3.75;;;;;;;10.75;67.67;96863.44;1794976;79;21185;-64
2021/03/14 11:50:36;;;;;;;9.65;5.03;;;;;;;10.76;68.09;96860.69;1807820;77;28437;-64
2021/03/14 11:53:04;;;;;;;6.78;3.75;;;;;;;10.86;66.82;96863.87;1739267;82;21151;-64
2021/03/14 11:55:34;;;;;;;5.90;3.33;;;;;;;10.78;65.78;96865.20;1738610;81;21155;-64
2021/03/14 11:58:03;;;;;;;8.38;4.45;;;;;;;10.65;65.40;96868.86;1739740;82;21116;-63
2021/03/14 12:00:33;;;;;;;5.92;3.50;;;;;;;10.70;65.75;96862.65;1739818;81;21918;-64
2021/03/14 12:03:02;;;;;;;11.65;3.52;;;;;;;10.83;65.52;96862.91;1742045;81;21122;-63
2021/03/14 12:05:48;;;;;;;6.87;3.62;;;;;;;10.97;65.54;96861.39;1753676;79;23124;-62
2021/03/14 12:08:18;;;;;;;5.05;3.50;;;;;;;10.87;65.69;96859.00;1718344;82;21728;-63
2021/03/14 12:10:46;;;;;;;5.22;3.50;;;;;;;10.85;67.14;96856.27;1743874;82;21554;-65
2021/03/14 12:13:14;;;;;;;7.55;3.50;;;;;;;10.79;66.54;96849.14;1723333;83;21160;-65
2021/03/14 12:15:43;;;;;;;10.13;4.10;;;;;;;10.76;67.48;96851.59;1731008;82;21227;-64
2021/03/14 12:18:11;;;;;;;5.42;3.60;;;;;;;10.71;67.45;96851.78;1690713;85;21594;-65
2021/03/14 12:20:44;;;;;;;6.15;3.75;;;;;;;10.84;66.81;96855.45;1688910;83;21222;-64
2021/03/14 12:23:17;;;;;;;10.03;3.85;;;;;;;10.92;66.39;96854.11;1722382;82;21549;-64
2021/03/14 12:25:47;;;;;;;7.78;4.08;;;;;;;11.01;66.33;96844.45;1709913;82;21183;-65
2021/03/14 12:28:17;;;;;;;6.15;3.58;;;;;;;11.09;66.37;96844.92;1725052;80;21160;-65
2021/03/14 12:30:48;;;;;;;4.83;2.98;;;;;;;11.18;66.05;96843.86;1737947;82;21496;-64
2021/03/14 12:33:17;;;;;;;6.65;3.98;;;;;;;11.24;67.05;96831.00;1720921;82;21152;-64
2021/03/14 12:35:46;;;;;;;6.35;3.45;;;;;;;11.18;67.36;96812.67;1698039;82;21140;-64
2021/03/14 12:38:17;;;;;;;7.90;4.80;;;;;;;11.22;67.43;96797.88;1729894;82;21188;-64
2021/03/14 12:40:47;;;;;;;6.15;4.42;;;;;;;11.38;69.34;96793.03;1718039;82;21194;-65